Latest tweets that mention www.meteo.dz

meteo_mobile

MODERATE DAUL Monthly #Record #crosswind of 20.0 KT @ LAGHOUAT, DZ ✈ https://t.co/N1nbGgee7Ehttps://twitter.com/meteo_mobile

1 week ago

meteo_mobile

EXTREME DATM Daily #Record #crosswind of 31.4 KT @ BORDJ MOKHTAR, DZ ✈ https://t.co/ce8J6XhCELhttps://twitter.com/meteo_mobile

2 weeks ago

meteo_mobile

EXTREME DATM Monthly #Record #crosswind of 31.6 KT @ BORDJ MOKHTAR, DZ ✈ https://t.co/ce8J6X01gbhttps://twitter.com/meteo_mobile

2 weeks ago

meteo_mobile

MODERATE DAUA Monthly #Record #crosswind of 28.0 KT @ ADRAR, DZ ✈ https://t.co/DIjgdLtQxzhttps://twitter.com/meteo_mobile

2 weeks ago

Schiphol✈Amsterdam

#EHAM 120225Z 29010KT 260V320 9999 -DZ SCT012 BKN016 18/16 Q1019 NOSIG #AMSTERDAM #SCHIPHOL #METEO #WEER #WEATHER #AIRPORThttps://twitter.com/Amsterdam_wx

2 weeks ago

Latest tweets that mention “Météo DZ”

meteo_mobile

MODERATE DAUL Monthly #Record #crosswind of 20.0 KT @ LAGHOUAT, DZ ✈ https://t.co/N1nbGgee7E

https://twitter.com/meteo_mobile

1 week ago

meteo_mobile

EXTREME DATM Daily #Record #crosswind of 31.4 KT @ BORDJ MOKHTAR, DZ ✈ https://t.co/ce8J6XhCEL

https://twitter.com/meteo_mobile

2 weeks ago

meteo_mobile

EXTREME DATM Monthly #Record #crosswind of 31.6 KT @ BORDJ MOKHTAR, DZ ✈ https://t.co/ce8J6X01gb

https://twitter.com/meteo_mobile

2 weeks ago

meteo_mobile

MODERATE DAUA Monthly #Record #crosswind of 28.0 KT @ ADRAR, DZ ✈ https://t.co/DIjgdLtQxz

https://twitter.com/meteo_mobile

2 weeks ago

Schiphol✈Amsterdam

#EHAM 120225Z 29010KT 260V320 9999 -DZ SCT012 BKN016 18/16 Q1019 NOSIG #AMSTERDAM #SCHIPHOL #METEO #WEER #WEATHER #AIRPORT

https://twitter.com/Amsterdam_wx

2 weeks ago